createdAt,value
2022-09-21T00:00:37.077Z,4.70
2022-09-21T00:03:41.426Z,6.90
2022-09-21T00:06:43.499Z,7.25
2022-09-21T00:09:45.608Z,10.02
2022-09-21T00:12:48.767Z,8.70
2022-09-21T00:15:50.770Z,12.02
2022-09-21T00:18:53.248Z,6.05
2022-09-21T00:21:56.248Z,7.75
2022-09-21T00:24:58.281Z,10.57
2022-09-21T00:28:00.718Z,8.23
2022-09-21T00:31:07.753Z,8.63
2022-09-21T00:34:09.750Z,9.15
2022-09-21T00:37:11.931Z,4.85
2022-09-21T00:40:14.010Z,10.07
2022-09-21T00:43:17.466Z,4.57
2022-09-21T00:46:30.462Z,7.13
2022-09-21T00:49:34.878Z,10.75
2022-09-21T00:52:41.386Z,5.53
2022-09-21T00:55:55.296Z,12.10
2022-09-21T00:58:57.973Z,29.10
2022-09-21T01:02:00.663Z,32.15
2022-09-21T01:05:06.511Z,15.10
2022-09-21T01:08:12.552Z,10.02
2022-09-21T01:11:20.510Z,14.65
2022-09-21T01:14:54.649Z,12.23
2022-09-21T01:18:18.687Z,11.38
2022-09-21T01:21:34.896Z,17.77
2022-09-21T01:24:50.611Z,14.23
2022-09-21T01:28:03.651Z,12.80
2022-09-21T01:31:11.621Z,9.75
2022-09-21T01:34:54.657Z,9.27
2022-09-21T01:38:13.859Z,10.40
2022-09-21T01:41:23.056Z,11.02
2022-09-21T01:44:29.220Z,24.25
2022-09-21T01:47:31.876Z,16.25
2022-09-21T01:50:41.568Z,25.50
2022-09-21T01:53:52.408Z,17.25
2022-09-21T01:57:32.908Z,22.08
2022-09-21T02:00:35.751Z,25.40
2022-09-21T02:03:40.579Z,20.02
2022-09-21T02:06:46.044Z,14.30
2022-09-21T02:09:48.672Z,29.40
2022-09-21T02:12:56.954Z,15.57
2022-09-21T02:16:03.929Z,17.83
2022-09-21T02:19:58.982Z,20.60
2022-09-21T02:23:07.989Z,23.35
2022-09-21T02:26:19.911Z,19.50
2022-09-21T02:29:27.683Z,17.48
2022-09-21T02:32:47.026Z,21.35
2022-09-21T02:36:01.429Z,18.38
2022-09-21T02:39:11.282Z,22.20
2022-09-21T02:42:23.532Z,19.20
2022-09-21T02:45:33.299Z,34.08
2022-09-21T02:48:45.083Z,32.35
2022-09-21T02:51:53.880Z,26.38
2022-09-21T02:55:01.628Z,22.23
2022-09-21T02:58:07.019Z,21.13
2022-09-21T03:01:12.189Z,27.60
2022-09-21T03:04:14.269Z,22.33
2022-09-21T03:07:17.444Z,21.65
2022-09-21T03:10:19.518Z,24.43
2022-09-21T03:13:26.043Z,24.52
2022-09-21T03:16:28.651Z,21.83
2022-09-21T03:19:30.650Z,19.30
2022-09-21T03:22:32.686Z,24.17
2022-09-21T03:25:34.690Z,17.83
2022-09-21T03:28:36.743Z,19.30
2022-09-21T03:31:38.736Z,19.65
2022-09-21T03:34:41.918Z,17.95
2022-09-21T03:37:44.338Z,20.00
2022-09-21T03:40:47.281Z,22.63
2022-09-21T03:43:49.426Z,11.82
2022-09-21T03:46:51.726Z,16.90
2022-09-21T03:49:54.333Z,14.40
2022-09-21T03:52:57.394Z,19.30
2022-09-21T03:55:59.413Z,15.10
2022-09-21T03:59:01.658Z,21.88
2022-09-21T04:02:03.914Z,18.65
2022-09-21T04:05:07.228Z,20.80
2022-09-21T04:08:10.223Z,24.08
2022-09-21T04:11:16.627Z,29.77
2022-09-21T04:14:18.737Z,23.48
2022-09-21T04:17:21.087Z,27.40
2022-09-21T04:20:23.773Z,22.60
2022-09-21T04:23:26.832Z,22.83
2022-09-21T04:26:31.555Z,23.15
2022-09-21T04:29:33.646Z,17.08
2022-09-21T04:32:35.626Z,16.70
2022-09-21T04:35:37.814Z,17.52
2022-09-21T04:38:42.770Z,20.52
2022-09-21T04:41:45.588Z,19.55
2022-09-21T04:44:47.554Z,19.23
2022-09-21T04:47:50.009Z,23.83
2022-09-21T04:50:52.057Z,19.75
2022-09-21T04:53:54.209Z,21.17
2022-09-21T04:56:56.515Z,20.10
2022-09-21T04:59:58.824Z,18.10
2022-09-21T05:03:00.861Z,19.63
2022-09-21T05:06:03.261Z,19.02
2022-09-21T05:09:23.909Z,29.90
2022-09-21T05:12:25.969Z,21.10
2022-09-21T05:15:28.177Z,21.52
2022-09-21T05:18:30.281Z,25.35
2022-09-21T05:21:32.386Z,22.63
2022-09-21T05:24:34.579Z,28.27
2022-09-21T05:27:37.239Z,21.70
2022-09-21T05:30:47.815Z,19.35
2022-09-21T05:34:07.637Z,21.42
2022-09-21T05:37:31.260Z,16.58
2022-09-21T05:40:33.958Z,12.40
2022-09-21T05:43:36.310Z,8.93
2022-09-21T05:46:41.693Z,15.13
2022-09-21T05:50:20.356Z,12.85
2022-09-21T05:53:34.985Z,13.80
2022-09-21T05:56:51.871Z,9.18
2022-09-21T06:00:19.109Z,22.65
2022-09-21T06:03:29.804Z,9.15
2022-09-21T06:06:31.828Z,11.07
2022-09-21T06:09:33.845Z,8.90
2022-09-21T06:12:36.121Z,17.02
2022-09-21T06:15:38.641Z,8.48
2022-09-21T06:18:42.597Z,12.75
2022-09-21T06:21:45.045Z,18.35
2022-09-21T06:24:47.427Z,12.63
2022-09-21T06:27:49.466Z,9.45
2022-09-21T06:30:53.313Z,9.20
2022-09-21T06:33:55.623Z,7.55
2022-09-21T06:36:58.172Z,8.80
2022-09-21T06:40:00.307Z,9.70
2022-09-21T06:43:03.867Z,7.57
2022-09-21T06:46:06.085Z,10.52
2022-09-21T06:49:08.317Z,10.40
2022-09-21T06:52:10.438Z,4.38
2022-09-21T06:55:12.789Z,9.52
2022-09-21T06:58:14.880Z,10.15
2022-09-21T07:01:17.481Z,7.78
2022-09-21T07:04:25.003Z,7.00
2022-09-21T07:07:30.483Z,11.75
2022-09-21T07:10:32.692Z,6.63
2022-09-21T07:13:35.723Z,9.52
2022-09-21T07:16:37.856Z,6.35
2022-09-21T07:19:40.002Z,6.63
2022-09-21T07:22:42.999Z,12.13
2022-09-21T07:25:47.007Z,13.95
2022-09-21T07:28:49.358Z,9.65
2022-09-21T07:31:51.485Z,10.27
2022-09-21T07:34:56.610Z,11.77
2022-09-21T07:37:59.456Z,11.00
2022-09-21T07:41:03.298Z,10.82
2022-09-21T07:44:05.680Z,8.57
2022-09-21T07:47:08.457Z,8.63
2022-09-21T07:50:10.627Z,4.25
2022-09-21T07:53:13.866Z,10.13
2022-09-21T07:56:17.595Z,10.50
2022-09-21T07:59:20.554Z,8.20
2022-09-21T08:02:22.683Z,7.95
2022-09-21T08:05:24.845Z,10.68
2022-09-21T08:08:26.882Z,7.55
2022-09-21T08:11:30.412Z,8.38
2022-09-21T08:14:32.765Z,10.85
2022-09-21T08:17:34.802Z,12.67
2022-09-21T08:20:37.258Z,10.80
2022-09-21T08:23:43.201Z,14.80
2022-09-21T08:26:45.367Z,13.20
2022-09-21T08:29:47.420Z,15.43
2022-09-21T08:32:51.939Z,10.90
2022-09-21T08:35:55.724Z,14.07
2022-09-21T08:38:58.003Z,11.63
2022-09-21T08:42:00.141Z,18.02
2022-09-21T08:45:10.167Z,8.68
2022-09-21T08:48:16.503Z,10.35
2022-09-21T08:51:25.273Z,9.98
2022-09-21T08:54:49.594Z,15.90
2022-09-21T08:57:51.621Z,17.00
2022-09-21T09:01:21.794Z,14.83
2022-09-21T09:04:30.884Z,9.55
2022-09-21T09:07:49.165Z,9.18
2022-09-21T09:11:12.593Z,13.23
2022-09-21T09:14:56.870Z,8.65
2022-09-21T09:18:04.138Z,11.10
2022-09-21T09:21:15.656Z,11.40
2022-09-21T09:24:42.679Z,8.95
2022-09-21T09:27:47.060Z,7.70
2022-09-21T09:30:57.572Z,21.17
2022-09-21T09:34:21.148Z,6.72
2022-09-21T09:37:32.709Z,13.63
2022-09-21T09:40:55.278Z,14.63
2022-09-21T09:44:00.143Z,16.38
2022-09-21T09:47:26.273Z,7.28
2022-09-21T09:50:32.252Z,7.55
2022-09-21T09:53:36.212Z,11.23
2022-09-21T09:56:38.336Z,6.20
2022-09-21T09:59:51.773Z,11.60
2022-09-21T10:02:58.794Z,8.27
2022-09-21T10:06:00.894Z,8.10
2022-09-21T10:09:20.342Z,3.70
2022-09-21T10:12:27.641Z,4.75
2022-09-21T10:15:30.127Z,4.07
2022-09-21T10:18:38.124Z,3.97
2022-09-21T10:21:46.615Z,6.38
2022-09-21T10:24:53.211Z,5.32
2022-09-21T10:27:56.556Z,4.38
2022-09-21T10:31:11.319Z,12.13
2022-09-21T10:34:14.652Z,6.07
2022-09-21T10:37:33.992Z,1.98
2022-09-21T10:40:40.451Z,5.97
2022-09-21T10:43:44.757Z,7.95
2022-09-21T10:46:48.913Z,2.95
2022-09-21T10:49:55.166Z,5.32
2022-09-21T10:53:25.091Z,4.22
2022-09-21T10:56:27.346Z,5.53
2022-09-21T10:59:32.359Z,4.78
2022-09-21T11:02:38.656Z,3.80
2022-09-21T11:05:43.760Z,10.05
2022-09-21T11:08:49.226Z,4.15
2022-09-21T11:12:17.186Z,3.80
2022-09-21T11:15:42.468Z,5.53
2022-09-21T11:18:55.826Z,8.00
2022-09-21T11:22:15.199Z,5.55
2022-09-21T11:25:28.841Z,7.72
2022-09-21T11:29:14.199Z,6.20
2022-09-21T11:32:37.976Z,4.63
2022-09-21T11:35:41.411Z,6.32
2022-09-21T11:38:59.119Z,5.95
2022-09-21T11:43:09.259Z,2.65
2022-09-21T11:46:32.140Z,9.70
2022-09-21T11:50:29.759Z,6.47
2022-09-21T11:53:44.645Z,6.95
2022-09-21T11:56:52.690Z,6.28
2022-09-21T12:00:04.286Z,9.30
2022-09-21T12:03:36.924Z,5.95
2022-09-21T12:06:48.248Z,6.38
2022-09-21T12:10:10.947Z,3.20
2022-09-21T12:13:15.949Z,5.80
2022-09-21T12:16:33.845Z,8.48
2022-09-21T12:20:02.450Z,2.95
2022-09-21T12:23:11.114Z,4.53
2022-09-21T12:26:20.778Z,6.53
2022-09-21T12:29:47.742Z,3.67
2022-09-21T12:32:56.769Z,4.60
2022-09-21T12:36:28.279Z,4.20
2022-09-21T12:39:37.504Z,1.83
2022-09-21T12:42:51.012Z,5.88
2022-09-21T12:45:58.508Z,11.80
2022-09-21T12:49:08.867Z,4.50
2022-09-21T12:52:18.470Z,9.52
2022-09-21T12:55:20.487Z,4.40
2022-09-21T12:58:30.434Z,6.57
2022-09-21T13:02:01.512Z,8.63
2022-09-21T13:05:28.054Z,5.43
2022-09-21T13:08:37.757Z,12.82
2022-09-21T13:11:56.623Z,8.45
2022-09-21T13:15:13.980Z,5.25
2022-09-21T13:18:36.493Z,8.88
2022-09-21T13:21:38.963Z,4.88
2022-09-21T13:24:43.515Z,8.27
2022-09-21T13:28:12.085Z,4.07
2022-09-21T13:31:39.855Z,7.40
2022-09-21T13:34:49.283Z,6.15
2022-09-21T13:38:31.076Z,6.05
2022-09-21T13:41:52.218Z,3.42
2022-09-21T13:44:59.054Z,6.30
2022-09-21T13:48:19.033Z,9.38
2022-09-21T13:51:21.042Z,5.72
2022-09-21T13:54:26.526Z,1.80
2022-09-21T13:57:48.906Z,5.30
2022-09-21T14:01:02.562Z,4.25
2022-09-21T14:04:23.007Z,4.20
2022-09-21T14:07:31.005Z,4.25
2022-09-21T14:10:37.409Z,3.25
2022-09-21T14:13:44.617Z,3.28
2022-09-21T14:16:52.139Z,4.18
2022-09-21T14:19:54.556Z,2.80
2022-09-21T14:23:16.474Z,4.50
2022-09-21T14:26:33.897Z,8.70
2022-09-21T14:29:44.681Z,2.53
2022-09-21T14:33:00.371Z,1.27
2022-09-21T14:36:08.880Z,1.92
2022-09-21T14:39:25.057Z,2.53
2022-09-21T14:42:29.207Z,10.57
2022-09-21T14:46:05.902Z,5.43
2022-09-21T14:49:15.405Z,12.95
2022-09-21T14:52:45.531Z,17.65
2022-09-21T14:55:47.602Z,13.48
2022-09-21T14:59:27.908Z,7.72
2022-09-21T15:02:34.668Z,8.18
2022-09-21T15:05:40.548Z,5.32
2022-09-21T15:09:36.246Z,10.07
2022-09-21T15:12:44.324Z,10.63
2022-09-21T15:16:18.044Z,6.18
2022-09-21T15:19:28.324Z,9.90
2022-09-21T15:22:32.042Z,6.85
2022-09-21T15:25:34.448Z,7.75
2022-09-21T15:29:08.308Z,3.80
2022-09-21T15:32:19.221Z,6.53
2022-09-21T15:35:29.553Z,3.63
2022-09-21T15:38:34.529Z,4.32
2022-09-21T15:41:43.021Z,11.02
2022-09-21T15:44:50.890Z,13.73
2022-09-21T15:47:53.157Z,4.63
2022-09-21T15:51:17.064Z,7.88
2022-09-21T15:55:11.852Z,10.88
2022-09-21T15:58:29.526Z,8.70
2022-09-21T16:01:31.702Z,9.95
2022-09-21T16:04:34.004Z,8.63
2022-09-21T16:07:38.467Z,7.78
2022-09-21T16:10:41.327Z,4.80
2022-09-21T16:14:04.550Z,6.47
2022-09-21T16:17:22.435Z,9.10
2022-09-21T16:20:42.369Z,7.18
2022-09-21T16:23:44.500Z,9.13
2022-09-21T16:26:58.639Z,7.47
2022-09-21T16:30:01.329Z,9.07
2022-09-21T16:33:23.271Z,5.97
2022-09-21T16:36:34.033Z,5.43
2022-09-21T16:39:36.130Z,10.18
2022-09-21T16:42:38.549Z,8.27
2022-09-21T16:45:40.994Z,12.95
2022-09-21T16:48:44.454Z,7.40
2022-09-21T16:51:48.646Z,9.23
2022-09-21T16:54:51.097Z,8.75
2022-09-21T16:57:53.258Z,8.70
2022-09-21T17:00:56.341Z,5.25
2022-09-21T17:03:58.490Z,6.93
2022-09-21T17:07:01.345Z,17.20
2022-09-21T17:10:13.202Z,13.60
2022-09-21T17:13:19.338Z,9.65
2022-09-21T17:19:28.463Z,8.82
2022-09-21T17:22:30.625Z,6.68
2022-09-21T17:25:34.856Z,10.57
2022-09-21T17:28:37.180Z,8.82
2022-09-21T17:31:39.403Z,5.85
2022-09-21T17:34:42.358Z,10.35
2022-09-21T17:37:45.747Z,15.88
2022-09-21T17:40:48.099Z,11.35
2022-09-21T17:44:14.215Z,6.85
2022-09-21T17:47:22.192Z,9.77
2022-09-21T17:50:27.098Z,18.75
2022-09-21T17:53:37.197Z,6.68
2022-09-21T17:56:44.509Z,9.07
2022-09-21T17:59:54.577Z,9.75
2022-09-21T18:02:56.938Z,12.48
2022-09-21T18:06:02.183Z,7.75
2022-09-21T18:09:05.088Z,19.73
2022-09-21T18:12:07.130Z,15.47
2022-09-21T18:15:28.698Z,12.48
2022-09-21T18:18:58.736Z,7.00
2022-09-21T18:22:13.921Z,7.75
2022-09-21T18:25:33.699Z,8.85
2022-09-21T18:28:40.797Z,9.68
2022-09-21T18:32:17.181Z,8.20
2022-09-21T18:35:28.325Z,12.70
2022-09-21T18:38:59.654Z,7.43
2022-09-21T18:42:26.268Z,11.73
2022-09-21T18:45:58.014Z,14.23
2022-09-21T18:49:20.210Z,14.80
2022-09-21T18:52:36.232Z,12.93
2022-09-21T18:55:38.559Z,17.38
2022-09-21T18:58:42.962Z,13.20
2022-09-21T19:01:47.085Z,11.68
2022-09-21T19:04:49.844Z,16.17
2022-09-21T19:08:01.660Z,11.18
2022-09-21T19:11:08.360Z,11.35
2022-09-21T19:14:32.256Z,13.02
2022-09-21T19:18:11.325Z,12.43
2022-09-21T19:21:23.119Z,10.60
2022-09-21T19:24:35.709Z,9.52
2022-09-21T19:27:39.512Z,8.27
2022-09-21T19:30:42.682Z,12.63
2022-09-21T19:33:50.321Z,8.88
2022-09-21T19:36:53.872Z,8.70
2022-09-21T19:39:56.052Z,11.73
2022-09-21T19:43:33.339Z,13.10
2022-09-21T19:46:49.850Z,10.65
2022-09-21T19:49:58.032Z,6.43
2022-09-21T19:53:28.732Z,11.10
2022-09-21T19:56:54.733Z,7.82
2022-09-21T19:59:58.136Z,10.98
2022-09-21T20:03:13.935Z,7.07
2022-09-21T20:06:27.101Z,10.57
2022-09-21T20:09:37.495Z,12.77
2022-09-21T20:13:09.016Z,10.63
2022-09-21T20:16:33.217Z,11.70
2022-09-21T20:19:44.586Z,10.38
2022-09-21T20:22:46.807Z,32.78
2022-09-21T20:26:05.358Z,11.25
2022-09-21T20:29:08.745Z,15.95
2022-09-21T20:32:10.781Z,11.68
2022-09-21T20:35:18.455Z,13.57
2022-09-21T20:38:20.471Z,8.23
2022-09-21T20:41:24.570Z,11.57
2022-09-21T20:44:29.530Z,8.75
2022-09-21T20:47:31.811Z,18.60
2022-09-21T20:50:33.828Z,13.88
2022-09-21T20:53:36.031Z,9.50
2022-09-21T20:56:38.304Z,11.32
2022-09-21T20:59:40.718Z,12.93
2022-09-21T21:02:43.454Z,11.35
2022-09-21T21:05:46.168Z,10.65
2022-09-21T21:08:48.248Z,12.45
2022-09-21T21:11:51.902Z,18.15
2022-09-21T21:14:53.937Z,12.13
2022-09-21T21:17:56.706Z,7.18
2022-09-21T21:21:03.251Z,18.40
2022-09-21T21:24:24.436Z,12.05
2022-09-21T21:27:28.110Z,17.60
2022-09-21T21:30:31.241Z,9.88
2022-09-21T21:33:33.298Z,9.93
2022-09-21T21:36:35.325Z,11.35
2022-09-21T21:39:37.571Z,9.05
2022-09-21T21:42:39.713Z,11.88
2022-09-21T21:45:42.735Z,15.38
2022-09-21T21:48:45.831Z,11.10
2022-09-21T21:51:49.416Z,10.25
2022-09-21T21:54:51.469Z,7.45
2022-09-21T21:57:53.572Z,10.02
2022-09-21T22:00:55.733Z,9.90
2022-09-21T22:04:00.008Z,10.93
2022-09-21T22:07:02.293Z,7.30
2022-09-21T22:10:04.594Z,9.60
2022-09-21T22:13:07.192Z,15.38
2022-09-21T22:16:12.276Z,9.38
2022-09-21T22:19:14.704Z,16.83
2022-09-21T22:22:16.805Z,15.63
2022-09-21T22:25:18.862Z,9.20
2022-09-21T22:28:20.931Z,7.70
2022-09-21T22:31:29.117Z,11.15
2022-09-21T22:34:31.278Z,8.68
2022-09-21T22:37:33.540Z,9.25
2022-09-21T22:40:35.650Z,9.30
2022-09-21T22:43:38.087Z,14.05
2022-09-21T22:46:40.829Z,6.07
2022-09-21T22:49:42.909Z,7.35
2022-09-21T22:52:45.288Z,8.55
2022-09-21T22:55:48.042Z,6.63
2022-09-21T22:58:53.395Z,9.98
2022-09-21T23:01:56.770Z,13.18
2022-09-21T23:04:58.817Z,7.47
2022-09-21T23:08:00.990Z,7.68
2022-09-21T23:11:31.009Z,8.40
2022-09-21T23:14:33.051Z,11.23
2022-09-21T23:17:35.775Z,11.63
2022-09-21T23:20:37.909Z,6.22
2022-09-21T23:23:40.836Z,9.23
2022-09-21T23:26:43.113Z,8.60
2022-09-21T23:29:45.449Z,7.45
2022-09-21T23:32:47.563Z,7.75
2022-09-21T23:35:52.710Z,7.80
2022-09-21T23:38:55.438Z,7.85
2022-09-21T23:41:57.461Z,8.70
2022-09-21T23:44:59.468Z,10.07
2022-09-21T23:48:01.743Z,10.98
2022-09-21T23:51:04.276Z,8.13
2022-09-21T23:54:07.012Z,9.60
2022-09-21T23:57:09.230Z,11.80
